Hamnavoe — VSTY7 — position and weather

sailwx.info

Track history (hours):
 
Tides and Currents Weather Stations Pressure Air Temp Water Temp Dewpoint Dewpoint Depression Visibility Wind Speed Wind Dir Waves Ship Positions

Hamnavoe

Operator: NorthLink Orkey & Shetland Ferries Ltd

Last reported at 2015-May-25 14:30 UTC. Time now 2015-May-25 15:34 UTC.
Position N 58°58' W 003°18'.

Length 112 m; draft 4.2 m.

Type: Ship. MMSI: 235449000.

Date/timePositionNaut miles runAvg speedWind from/ knotsBaromVisibWave heightAir tempDewpointWater temp
2015-May-25 14:30N 58°58' W 003°18'1 1.2
2015-May-25 13:33N 58°57' W 003°19'1615.6
2015-May-25 12:33N 58°42' W 003°30'6 5.3
2015-May-25 11:30N 58°37' W 003°32'1717.6
2015-May-25 10:33N 58°53' W 003°27'7 6.8
2015-May-25 09:33N 58°58' W 003°18'9 8.6
2015-May-25 08:33N 58°51' W 003°28'1514.6
2015-May-25 07:33N 58°37' W 003°32'8 7.6
2015-May-25 06:33N 58°44' W 003°30'1514.8
2015-May-25 05:33N 58°58' W 003°18'0 0.2
2015-May-25 04:31N 58°58' W 003°18'0 0.0
2015-May-25 03:16N 58°58' W 003°18'0 0.0
2015-May-25 02:33N 58°58' W 003°18'0 0.0
2015-May-25 01:09N 58°58' W 003°18'0 0.0
2015-May-25 00:33N 58°58' W 003°18'0 0.0
2015-May-24 23:33N 58°58' W 003°18'0 0.0
2015-May-24 22:33N 58°58' W 003°18'0 0.0
2015-May-24 21:33N 58°58' W 003°18'0 0.0
2015-May-24 20:33N 58°58' W 003°18'0 0.0
2015-May-24 19:32N 58°58' W 003°18'1211.9
2015-May-24 18:33N 58°48' W 003°30'1111.0
2015-May-24 17:32N 58°37' W 003°32'1111.5
2015-May-24 16:33N 58°48' W 003°30'1211.7
2015-May-24 15:33N 58°58' W 003°18'0 0.0
2015-May-24 14:33N 58°58' W 003°18'0 0.0
2015-May-24 13:33N 58°58' W 003°18'0 0.0
2015-May-24 12:32N 58°58' W 003°18'1212.8
2015-May-24 11:33N 58°47' W 003°29'1010.2
2015-May-24 10:33N 58°37' W 003°32'2 1.4
2015-May-24 09:25N 58°38' W 003°31'1517.7
2015-May-24 08:33N 58°53' W 003°28'7 6.8
2015-May-24 07:33N 58°58' W 003°18'0 0.0
2015-May-24 06:33N 58°58' W 003°18'0 0.0
2015-May-24 05:33N 58°58' W 003°18'0 0.0
2015-May-24 04:33N 58°58' W 003°18'0 0.0
2015-May-24 03:33N 58°58' W 003°18'0 0.0
2015-May-24 02:33N 58°58' W 003°18'0 0.0
2015-May-24 01:33N 58°58' W 003°18'0 0.0
2015-May-24 00:33N 58°58' W 003°18'0 0.0
2015-May-23 23:33N 58°58' W 003°18'0 0.0
2015-May-23 22:33N 58°58' W 003°18'0 0.0
2015-May-23 21:34N 58°58' W 003°18'0 0.0
2015-May-23 20:33N 58°58' W 003°18'0 0.0
2015-May-23 19:33N 58°58' W 003°18'1111.2
2015-May-23 18:33N 58°48' W 003°29'1211.8
2015-May-23 17:33N 58°37' W 003°32'1111.3
2015-May-23 16:33N 58°48' W 003°28'1211.5
2015-May-23 15:34N 58°58' W 003°18'0 0.0
2015-May-23 14:33N 58°58' W 003°18'0 0.0
2015-May-23 13:33N 58°58' W 003°18'0 0.0
2015-May-23 12:33N 58°58' W 003°18'1312.9
2015-May-23 11:33N 58°46' W 003°29'10 9.8
2015-May-23 10:33N 58°37' W 003°32'1 0.8
2015-May-23 09:27N 58°38' W 003°32'1617.6
2015-May-23 08:33N 58°53' W 003°28'7 6.9
2015-May-23 07:33N 58°58' W 003°18'0 0.0
2015-May-23 06:33N 58°58' W 003°18'0 0.0
2015-May-23 05:33N 58°58' W 003°18'0 0.0
2015-May-23 04:33N 58°58' W 003°18'0 0.0
2015-May-23 03:33N 58°58' W 003°18'0 0.0
2015-May-23 02:33N 58°58' W 003°18'0 0.0
2015-May-23 01:33N 58°58' W 003°18'0 0.0
2015-May-23 00:33N 58°58' W 003°18'0 0.0
2015-May-22 23:33N 58°58' W 003°18'0 0.0
2015-May-22 22:33N 58°58' W 003°18'0 0.0
2015-May-22 21:33N 58°58' W 003°18'0 0.0
2015-May-22 20:33N 58°58' W 003°18'7 7.3
2015-May-22 19:34N 58°51' W 003°11'1211.5
2015-May-22 18:33N 58°41' W 003°20'8 7.4
2015-May-22 17:30N 58°37' W 003°32'1414.3
2015-May-22 16:33N 58°50' W 003°30'1010.0
2015-May-22 15:33N 58°58' W 003°18'0 0.0
2015-May-22 14:30N 58°58' W 003°18'7 7.0
2015-May-22 13:34N 58°52' W 003°11'1414.4
2015-May-22 12:34N 58°40' W 003°26'4 3.6
2015-May-22 11:31N 58°38' W 003°32'1717.5
2015-May-22 10:33N 58°54' W 003°28'6 6.4
2015-May-22 09:33N 58°58' W 003°18'8 8.4
2015-May-22 08:33N 58°51' W 003°28'1514.9
2015-May-22 07:33N 58°37' W 003°32'7 6.9
2015-May-22 06:33N 58°43' W 003°30'1515.2
2015-May-22 05:33N 58°57' W 003°17'1 0.6
2015-May-22 04:29N 58°58' W 003°18'0 0.0
2015-May-22 03:32N 58°58' W 003°18'0 0.0
2015-May-22 02:32N 58°58' W 003°18'0 0.0
2015-May-22 01:32N 58°58' W 003°18'0 0.0
2015-May-22 00:29N 58°58' W 003°18'0 0.0
2015-May-21 23:29N 58°58' W 003°18'0 0.0
2015-May-21 22:29N 58°58' W 003°18'0 0.0
2015-May-21 21:32N 58°58' W 003°18'0 0.0
2015-May-21 20:32N 58°58' W 003°18'0 0.0
2015-May-21 19:33N 58°58' W 003°18'1313.4
2015-May-21 18:34N 58°46' W 003°30'10 9.5
2015-May-21 17:33N 58°37' W 003°32'1212.2
2015-May-21 16:33N 58°49' W 003°28'1110.7
2015-May-21 15:33N 58°58' W 003°18'0 0.0
2015-May-21 14:33N 58°58' W 003°18'1 1.0
2015-May-21 13:33N 58°57' W 003°17'1515.2
2015-May-21 12:33N 58°43' W 003°30'7 6.6
2015-May-21 11:33N 58°37' W 003°32'1616.6
2015-May-21 10:33N 58°53' W 003°28'7 7.2
2015-May-21 09:33N 58°58' W 003°18'9 8.5
2015-May-21 08:33N 58°51' W 003°28'1514.5
2015-May-21 07:32N 58°37' W 003°32'7 7.2
2015-May-21 06:33N 58°44' W 003°29'1515.0
2015-May-21 05:33N 58°57' W 003°17'1 0.6
2015-May-21 04:33N 58°58' W 003°18'0 0.0
2015-May-21 03:33N 58°58' W 003°18'0 0.0
2015-May-21 02:33N 58°58' W 003°18'0 0.0
2015-May-21 01:34N 58°58' W 003°18'0 0.0
2015-May-21 00:33N 58°58' W 003°18'0 0.0
2015-May-20 23:33N 58°58' W 003°18'0 0.0
2015-May-20 22:33N 58°58' W 003°18'0 0.0
2015-May-20 21:33N 58°58' W 003°18'0 0.0
2015-May-20 20:33N 58°58' W 003°18'0 0.0
2015-May-20 19:33N 58°58' W 003°18'1312.6
2015-May-20 18:33N 58°47' W 003°29'10 8.4
2015-May-20 17:21N 58°37' W 003°32'1114.2
2015-May-20 16:33N 58°48' W 003°29'1211.7
2015-May-20 15:33N 58°58' W 003°18'0 0.0
2015-May-20 14:32N 58°58' W 003°18'0 0.0
2015-May-20 13:33N 58°58' W 003°18'0 0.0
2015-May-20 12:29N 58°58' W 003°18'0 0.0
2015-May-20 11:33N 58°58' W 003°18'0 0.0
2015-May-20 10:33N 58°58' W 003°18'0 0.0
2015-May-20 09:33N 58°58' W 003°18'9 9.3
2015-May-20 08:33N 58°50' W 003°28'1413.8
2015-May-20 07:33N 58°37' W 003°32'6 6.5
2015-May-20 06:33N 58°43' W 003°30'1615.6
2015-May-20 05:33N 58°57' W 003°18'1 0.5
2015-May-20 04:31N 58°58' W 003°18'0 0.0
2015-May-20 03:31N 58°58' W 003°18'0 0.0
2015-May-20 02:34N 58°58' W 003°18'0 0.0
2015-May-20 01:31N 58°58' W 003°18'0 0.0
2015-May-20 00:28N 58°58' W 003°18'0 0.0
2015-May-19 23:34N 58°58' W 003°18'0 0.0
2015-May-19 22:34N 58°58' W 003°18'0 0.0
2015-May-19 21:28N 58°58' W 003°18'0 0.0
2015-May-19 20:34N 58°58' W 003°18'0 0.0
2015-May-19 19:34N 58°58' W 003°18'1111.1
2015-May-19 18:33N 58°48' W 003°28'1211.1
2015-May-19 17:30N 58°37' W 003°32'1010.4
2015-May-19 16:33N 58°46' W 003°30'1312.5
2015-May-19 15:32N 58°58' W 003°18'0 0.0
2015-May-19 14:32N 58°58' W 003°18'0 0.0
2015-May-19 13:32N 58°58' W 003°18'0 0.0
2015-May-19 12:33N 58°58' W 003°18'0 0.0
2015-May-19 11:30N 58°58' W 003°18'0 0.0
2015-May-19 10:33N 58°58' W 003°18'0 0.0
2015-May-19 09:33N 58°58' W 003°18'10 9.6
2015-May-19 08:33N 58°50' W 003°29'1413.6
2015-May-19 07:33N 58°37' W 003°32'7 6.5
2015-May-19 06:33N 58°43' W 003°30'1615.6
2015-May-19 05:33N 58°57' W 003°18'1 0.5
2015-May-19 04:32N 58°58' W 003°18'0 0.0
2015-May-19 03:34N 58°58' W 003°18'0 0.0
2015-May-19 02:34N 58°58' W 003°18'0 0.0
2015-May-19 01:34N 58°58' W 003°18'0 0.0
2015-May-19 00:32N 58°58' W 003°18'0 0.0
2015-May-18 23:33N 58°58' W 003°18'0 0.0
2015-May-18 22:33N 58°58' W 003°18'0 0.0
2015-May-18 21:15N 58°58' W 003°18'0 0.0
2015-May-18 20:17N 58°58' W 003°18'0 0.0
2015-May-18 19:33N 58°58' W 003°18'1211.8
2015-May-18 18:34N 58°48' W 003°28'10 6.7
2015-May-18 17:05N 58°38' W 003°31'1018.2
2015-May-18 16:33N 58°47' W 003°29'1212.0
2015-May-18 15:33N 58°58' W 003°18'0 0.0
2015-May-18 14:30N 58°58' W 003°18'0 0.0
2015-May-18 13:33N 58°58' W 003°18'0 0.0
2015-May-18 12:33N 58°58' W 003°18'0 0.0
2015-May-18 11:33N 58°58' W 003°18'0 0.0
2015-May-18 10:33N 58°58' W 003°18'0 0.0
2015-May-18 09:33N 58°58' W 003°18'8 8.3
2015-May-18 08:33N 58°51' W 003°28'1514.8
2015-May-18 07:33N 58°37' W 003°32'6 6.5
2015-May-18 06:33N 58°43' W 003°30'1515.2
2015-May-18 05:33N 58°57' W 003°18'1 1.0
2015-May-18 04:33N 58°58' W 003°18'0 0.0
2015-May-18 03:32N 58°58' W 003°18'0 0.0
2015-May-18 02:33N 58°58' W 003°18'0 0.0
2015-May-18 01:33N 58°58' W 003°18'0 0.0
2015-May-18 00:34N 58°58' W 003°18'0 0.0
2015-May-17 23:33N 58°58' W 003°18'0 0.0
2015-May-17 22:33N 58°58' W 003°18'0 0.0
2015-May-17 21:33N 58°58' W 003°18'0 0.0
2015-May-17 20:33N 58°58' W 003°18'0 0.0
2015-May-17 19:26N 58°58' W 003°18'1112.7
2015-May-17 18:33N 58°48' W 003°29'1210.7
2015-May-17 17:27N 58°37' W 003°32'1011.5
2015-May-17 16:33N 58°47' W 003°29'1212.4
2015-May-17 15:33N 58°58' W 003°18'0 0.0
2015-May-17 14:33N 58°58' W 003°18'0 0.0
2015-May-17 13:33N 58°58' W 003°18'0 0.0
2015-May-17 12:33N 58°58' W 003°18'1313.4
2015-May-17 11:34N 58°46' W 003°31'10 8.9
2015-May-17 10:29N 58°37' W 003°32'0 0.3
2015-May-17 09:33N 58°37' W 003°32'1717.3
2015-May-17 08:33N 58°54' W 003°28'6 6.4
2015-May-17 07:33N 58°58' W 003°18'0 0.0
2015-May-17 06:33N 58°58' W 003°18'0 0.0
2015-May-17 05:33N 58°58' W 003°18'0 0.0
2015-May-17 04:33N 58°58' W 003°18'0 0.0
2015-May-17 03:33N 58°58' W 003°18'0 0.0
2015-May-17 02:33N 58°58' W 003°18'0 0.0
2015-May-17 01:33N 58°58' W 003°18'0 0.0
2015-May-17 00:33N 58°58' W 003°18'0 0.0
2015-May-16 23:33N 58°58' W 003°18'0 0.0
2015-May-16 22:33N 58°58' W 003°18'0 0.0
2015-May-16 21:33N 58°58' W 003°18'0 0.0
2015-May-16 20:33N 58°58' W 003°18'1 1.3
2015-May-16 19:33N 58°57' W 003°16'1313.2
2015-May-16 18:33N 58°44' W 003°20'10 9.5
2015-May-16 17:33N 58°37' W 003°32'1312.9
2015-May-16 16:33N 58°49' W 003°29'1010.3
2015-May-16 15:33N 58°58' W 003°18'0 0.0
2015-May-16 14:33N 58°58' W 003°18'8 1.3
2015-May-16 08:33N 58°52' W 003°28'8 2.6
2015-May-16 05:33N 58°58' W 003°18'0 0.0
2015-May-16 04:33N 58°58' W 003°18'0 0.0
2015-May-16 03:33N 58°58' W 003°18'0 0.0
2015-May-16 02:33N 58°58' W 003°18'0 0.0
2015-May-16 01:33N 58°58' W 003°18'0 0.0
2015-May-16 00:33N 58°58' W 003°18'0 0.0
2015-May-15 23:33N 58°58' W 003°18'0 0.0
2015-May-15 22:21N 58°58' W 003°18'0 0.0
2015-May-15 21:30N 58°58' W 003°18'0 0.0
2015-May-15 20:30N 58°58' W 003°18'0 0.0
2015-May-15 19:33N 58°58' W 003°18'1413.8
2015-May-15 18:33N 58°46' W 003°30'9 9.0
2015-May-15 17:33N 58°37' W 003°32'1111.4
2015-May-15 16:33N 58°48' W 003°29'1211.4
2015-May-15 15:33N 58°58' W 003°18'  
Track history (hours):
 
Tides and Currents Weather Stations Pressure Air Temp Water Temp Dewpoint Dewpoint Depression Visibility Wind Speed Wind Dir Waves Ship Positions

Hamnavoe

Operator: NorthLink Orkey & Shetland Ferries Ltd

Last reported at 2015-May-25 14:30 UTC. Time now 2015-May-25 15:34 UTC.
Position N 58°58' W 003°18'.

Length 112 m; draft 4.2 m.

Type: Ship. MMSI: 235449000.

Date/timePositionNaut miles runAvg speedWind from/ knotsBaromVisibWave heightAir tempDewpointWater temp
2015-May-25 14:30N 58°58' W 003°18'1 1.2
2015-May-25 13:33N 58°57' W 003°19'1615.6
2015-May-25 12:33N 58°42' W 003°30'6 5.3
2015-May-25 11:30N 58°37' W 003°32'1717.6
2015-May-25 10:33N 58°53' W 003°27'7 6.8
2015-May-25 09:33N 58°58' W 003°18'9 8.6
2015-May-25 08:33N 58°51' W 003°28'1514.6
2015-May-25 07:33N 58°37' W 003°32'8 7.6
2015-May-25 06:33N 58°44' W 003°30'1514.8
2015-May-25 05:33N 58°58' W 003°18'0 0.2
2015-May-25 04:31N 58°58' W 003°18'0 0.0
2015-May-25 03:16N 58°58' W 003°18'0 0.0
2015-May-25 02:33N 58°58' W 003°18'0 0.0
2015-May-25 01:09N 58°58' W 003°18'0 0.0
2015-May-25 00:33N 58°58' W 003°18'0 0.0
2015-May-24 23:33N 58°58' W 003°18'0 0.0
2015-May-24 22:33N 58°58' W 003°18'0 0.0
2015-May-24 21:33N 58°58' W 003°18'0 0.0
2015-May-24 20:33N 58°58' W 003°18'0 0.0
2015-May-24 19:32N 58°58' W 003°18'1211.9
2015-May-24 18:33N 58°48' W 003°30'1111.0
2015-May-24 17:32N 58°37' W 003°32'1111.5
2015-May-24 16:33N 58°48' W 003°30'1211.7
2015-May-24 15:33N 58°58' W 003°18'0 0.0
2015-May-24 14:33N 58°58' W 003°18'0 0.0
2015-May-24 13:33N 58°58' W 003°18'0 0.0
2015-May-24 12:32N 58°58' W 003°18'1212.8
2015-May-24 11:33N 58°47' W 003°29'1010.2
2015-May-24 10:33N 58°37' W 003°32'2 1.4
2015-May-24 09:25N 58°38' W 003°31'1517.7
2015-May-24 08:33N 58°53' W 003°28'7 6.8
2015-May-24 07:33N 58°58' W 003°18'0 0.0
2015-May-24 06:33N 58°58' W 003°18'0 0.0
2015-May-24 05:33N 58°58' W 003°18'0 0.0
2015-May-24 04:33N 58°58' W 003°18'0 0.0
2015-May-24 03:33N 58°58' W 003°18'0 0.0
2015-May-24 02:33N 58°58' W 003°18'0 0.0
2015-May-24 01:33N 58°58' W 003°18'0 0.0
2015-May-24 00:33N 58°58' W 003°18'0 0.0
2015-May-23 23:33N 58°58' W 003°18'0 0.0
2015-May-23 22:33N 58°58' W 003°18'0 0.0
2015-May-23 21:34N 58°58' W 003°18'0 0.0
2015-May-23 20:33N 58°58' W 003°18'0 0.0
2015-May-23 19:33N 58°58' W 003°18'1111.2
2015-May-23 18:33N 58°48' W 003°29'1211.8
2015-May-23 17:33N 58°37' W 003°32'1111.3
2015-May-23 16:33N 58°48' W 003°28'1211.5
2015-May-23 15:34N 58°58' W 003°18'0 0.0
2015-May-23 14:33N 58°58' W 003°18'0 0.0
2015-May-23 13:33N 58°58' W 003°18'0 0.0
2015-May-23 12:33N 58°58' W 003°18'1312.9
2015-May-23 11:33N 58°46' W 003°29'10 9.8
2015-May-23 10:33N 58°37' W 003°32'1 0.8
2015-May-23 09:27N 58°38' W 003°32'1617.6
2015-May-23 08:33N 58°53' W 003°28'7 6.9
2015-May-23 07:33N 58°58' W 003°18'0 0.0
2015-May-23 06:33N 58°58' W 003°18'0 0.0
2015-May-23 05:33N 58°58' W 003°18'0 0.0
2015-May-23 04:33N 58°58' W 003°18'0 0.0
2015-May-23 03:33N 58°58' W 003°18'0 0.0
2015-May-23 02:33N 58°58' W 003°18'0 0.0
2015-May-23 01:33N 58°58' W 003°18'0 0.0
2015-May-23 00:33N 58°58' W 003°18'0 0.0
2015-May-22 23:33N 58°58' W 003°18'0 0.0
2015-May-22 22:33N 58°58' W 003°18'0 0.0
2015-May-22 21:33N 58°58' W 003°18'0 0.0
2015-May-22 20:33N 58°58' W 003°18'7 7.3
2015-May-22 19:34N 58°51' W 003°11'1211.5
2015-May-22 18:33N 58°41' W 003°20'8 7.4
2015-May-22 17:30N 58°37' W 003°32'1414.3
2015-May-22 16:33N 58°50' W 003°30'1010.0
2015-May-22 15:33N 58°58' W 003°18'0 0.0
2015-May-22 14:30N 58°58' W 003°18'7 7.0
2015-May-22 13:34N 58°52' W 003°11'1414.4
2015-May-22 12:34N 58°40' W 003°26'4 3.6
2015-May-22 11:31N 58°38' W 003°32'1717.5
2015-May-22 10:33N 58°54' W 003°28'6 6.4
2015-May-22 09:33N 58°58' W 003°18'8 8.4
2015-May-22 08:33N 58°51' W 003°28'1514.9
2015-May-22 07:33N 58°37' W 003°32'7 6.9
2015-May-22 06:33N 58°43' W 003°30'1515.2
2015-May-22 05:33N 58°57' W 003°17'1 0.6
2015-May-22 04:29N 58°58' W 003°18'0 0.0
2015-May-22 03:32N 58°58' W 003°18'0 0.0
2015-May-22 02:32N 58°58' W 003°18'0 0.0
2015-May-22 01:32N 58°58' W 003°18'0 0.0
2015-May-22 00:29N 58°58' W 003°18'0 0.0
2015-May-21 23:29N 58°58' W 003°18'0 0.0
2015-May-21 22:29N 58°58' W 003°18'0 0.0
2015-May-21 21:32N 58°58' W 003°18'0 0.0
2015-May-21 20:32N 58°58' W 003°18'0 0.0
2015-May-21 19:33N 58°58' W 003°18'1313.4
2015-May-21 18:34N 58°46' W 003°30'10 9.5
2015-May-21 17:33N 58°37' W 003°32'1212.2
2015-May-21 16:33N 58°49' W 003°28'1110.7
2015-May-21 15:33N 58°58' W 003°18'0 0.0
2015-May-21 14:33N 58°58' W 003°18'1 1.0
2015-May-21 13:33N 58°57' W 003°17'1515.2
2015-May-21 12:33N 58°43' W 003°30'7 6.6
2015-May-21 11:33N 58°37' W 003°32'1616.6
2015-May-21 10:33N 58°53' W 003°28'7 7.2
2015-May-21 09:33N 58°58' W 003°18'9 8.5
2015-May-21 08:33N 58°51' W 003°28'1514.5
2015-May-21 07:32N 58°37' W 003°32'7 7.2
2015-May-21 06:33N 58°44' W 003°29'1515.0
2015-May-21 05:33N 58°57' W 003°17'1 0.6
2015-May-21 04:33N 58°58' W 003°18'0 0.0
2015-May-21 03:33N 58°58' W 003°18'0 0.0
2015-May-21 02:33N 58°58' W 003°18'0 0.0
2015-May-21 01:34N 58°58' W 003°18'0 0.0
2015-May-21 00:33N 58°58' W 003°18'0 0.0
2015-May-20 23:33N 58°58' W 003°18'0 0.0
2015-May-20 22:33N 58°58' W 003°18'0 0.0
2015-May-20 21:33N 58°58' W 003°18'0 0.0
2015-May-20 20:33N 58°58' W 003°18'0 0.0
2015-May-20 19:33N 58°58' W 003°18'1312.6
2015-May-20 18:33N 58°47' W 003°29'10 8.4
2015-May-20 17:21N 58°37' W 003°32'1114.2
2015-May-20 16:33N 58°48' W 003°29'1211.7
2015-May-20 15:33N 58°58' W 003°18'0 0.0
2015-May-20 14:32N 58°58' W 003°18'0 0.0
2015-May-20 13:33N 58°58' W 003°18'0 0.0
2015-May-20 12:29N 58°58' W 003°18'0 0.0
2015-May-20 11:33N 58°58' W 003°18'0 0.0
2015-May-20 10:33N 58°58' W 003°18'0 0.0
2015-May-20 09:33N 58°58' W 003°18'9 9.3
2015-May-20 08:33N 58°50' W 003°28'1413.8
2015-May-20 07:33N 58°37' W 003°32'6 6.5
2015-May-20 06:33N 58°43' W 003°30'1615.6
2015-May-20 05:33N 58°57' W 003°18'1 0.5
2015-May-20 04:31N 58°58' W 003°18'0 0.0
2015-May-20 03:31N 58°58' W 003°18'0 0.0
2015-May-20 02:34N 58°58' W 003°18'0 0.0
2015-May-20 01:31N 58°58' W 003°18'0 0.0
2015-May-20 00:28N 58°58' W 003°18'0 0.0
2015-May-19 23:34N 58°58' W 003°18'0 0.0
2015-May-19 22:34N 58°58' W 003°18'0 0.0
2015-May-19 21:28N 58°58' W 003°18'0 0.0
2015-May-19 20:34N 58°58' W 003°18'0 0.0
2015-May-19 19:34N 58°58' W 003°18'1111.1
2015-May-19 18:33N 58°48' W 003°28'1211.1
2015-May-19 17:30N 58°37' W 003°32'1010.4
2015-May-19 16:33N 58°46' W 003°30'1312.5
2015-May-19 15:32N 58°58' W 003°18'0 0.0
2015-May-19 14:32N 58°58' W 003°18'0 0.0
2015-May-19 13:32N 58°58' W 003°18'0 0.0
2015-May-19 12:33N 58°58' W 003°18'0 0.0
2015-May-19 11:30N 58°58' W 003°18'0 0.0
2015-May-19 10:33N 58°58' W 003°18'0 0.0
2015-May-19 09:33N 58°58' W 003°18'10 9.6
2015-May-19 08:33N 58°50' W 003°29'1413.6
2015-May-19 07:33N 58°37' W 003°32'7 6.5
2015-May-19 06:33N 58°43' W 003°30'1615.6
2015-May-19 05:33N 58°57' W 003°18'1 0.5
2015-May-19 04:32N 58°58' W 003°18'0 0.0
2015-May-19 03:34N 58°58' W 003°18'0 0.0
2015-May-19 02:34N 58°58' W 003°18'0 0.0
2015-May-19 01:34N 58°58' W 003°18'0 0.0
2015-May-19 00:32N 58°58' W 003°18'0 0.0
2015-May-18 23:33N 58°58' W 003°18'0 0.0
2015-May-18 22:33N 58°58' W 003°18'0 0.0
2015-May-18 21:15N 58°58' W 003°18'0 0.0
2015-May-18 20:17N 58°58' W 003°18'0 0.0
2015-May-18 19:33N 58°58' W 003°18'1211.8
2015-May-18 18:34N 58°48' W 003°28'10 6.7
2015-May-18 17:05N 58°38' W 003°31'1018.2
2015-May-18 16:33N 58°47' W 003°29'1212.0
2015-May-18 15:33N 58°58' W 003°18'0 0.0
2015-May-18 14:30N 58°58' W 003°18'0 0.0
2015-May-18 13:33N 58°58' W 003°18'0 0.0
2015-May-18 12:33N 58°58' W 003°18'0 0.0
2015-May-18 11:33N 58°58' W 003°18'0 0.0
2015-May-18 10:33N 58°58' W 003°18'0 0.0
2015-May-18 09:33N 58°58' W 003°18'8 8.3
2015-May-18 08:33N 58°51' W 003°28'1514.8
2015-May-18 07:33N 58°37' W 003°32'6 6.5
2015-May-18 06:33N 58°43' W 003°30'1515.2
2015-May-18 05:33N 58°57' W 003°18'1 1.0
2015-May-18 04:33N 58°58' W 003°18'0 0.0
2015-May-18 03:32N 58°58' W 003°18'0 0.0
2015-May-18 02:33N 58°58' W 003°18'0 0.0
2015-May-18 01:33N 58°58' W 003°18'0 0.0
2015-May-18 00:34N 58°58' W 003°18'0 0.0
2015-May-17 23:33N 58°58' W 003°18'0 0.0
2015-May-17 22:33N 58°58' W 003°18'0 0.0
2015-May-17 21:33N 58°58' W 003°18'0 0.0
2015-May-17 20:33N 58°58' W 003°18'0 0.0
2015-May-17 19:26N 58°58' W 003°18'1112.7
2015-May-17 18:33N 58°48' W 003°29'1210.7
2015-May-17 17:27N 58°37' W 003°32'1011.5
2015-May-17 16:33N 58°47' W 003°29'1212.4
2015-May-17 15:33N 58°58' W 003°18'0 0.0
2015-May-17 14:33N 58°58' W 003°18'0 0.0
2015-May-17 13:33N 58°58' W 003°18'0 0.0
2015-May-17 12:33N 58°58' W 003°18'1313.4
2015-May-17 11:34N 58°46' W 003°31'10 8.9
2015-May-17 10:29N 58°37' W 003°32'0 0.3
2015-May-17 09:33N 58°37' W 003°32'1717.3
2015-May-17 08:33N 58°54' W 003°28'6 6.4
2015-May-17 07:33N 58°58' W 003°18'0 0.0
2015-May-17 06:33N 58°58' W 003°18'0 0.0
2015-May-17 05:33N 58°58' W 003°18'0 0.0
2015-May-17 04:33N 58°58' W 003°18'0 0.0
2015-May-17 03:33N 58°58' W 003°18'0 0.0
2015-May-17 02:33N 58°58' W 003°18'0 0.0
2015-May-17 01:33N 58°58' W 003°18'0 0.0
2015-May-17 00:33N 58°58' W 003°18'0 0.0
2015-May-16 23:33N 58°58' W 003°18'0 0.0
2015-May-16 22:33N 58°58' W 003°18'0 0.0
2015-May-16 21:33N 58°58' W 003°18'0 0.0
2015-May-16 20:33N 58°58' W 003°18'1 1.3
2015-May-16 19:33N 58°57' W 003°16'1313.2
2015-May-16 18:33N 58°44' W 003°20'10 9.5
2015-May-16 17:33N 58°37' W 003°32'1312.9
2015-May-16 16:33N 58°49' W 003°29'1010.3
2015-May-16 15:33N 58°58' W 003°18'0 0.0
2015-May-16 14:33N 58°58' W 003°18'8 1.3
2015-May-16 08:33N 58°52' W 003°28'8 2.6
2015-May-16 05:33N 58°58' W 003°18'0 0.0
2015-May-16 04:33N 58°58' W 003°18'0 0.0
2015-May-16 03:33N 58°58' W 003°18'0 0.0
2015-May-16 02:33N 58°58' W 003°18'0 0.0
2015-May-16 01:33N 58°58' W 003°18'0 0.0
2015-May-16 00:33N 58°58' W 003°18'0 0.0
2015-May-15 23:33N 58°58' W 003°18'0 0.0
2015-May-15 22:21N 58°58' W 003°18'0 0.0
2015-May-15 21:30N 58°58' W 003°18'0 0.0
2015-May-15 20:30N 58°58' W 003°18'0 0.0
2015-May-15 19:33N 58°58' W 003°18'1413.8
2015-May-15 18:33N 58°46' W 003°30'9 9.0
2015-May-15 17:33N 58°37' W 003°32'1111.4
2015-May-15 16:33N 58°48' W 003°29'1211.4
2015-May-15 15:33N 58°58' W 003°18'  

Dump ship's entire track history